Terminal Aerodrome Forecast
Issued by NWS Columbia, SC

Home | Current Version | Previous Version | Text Only | Print | Product List | Glossary On
Versions: 1 2 3 4 5 6 7 8 9 10 11 12 13 14 15 16 17 18 19 20 21 22 23 24 25 26 27 28 29 30 31 32 33 34 35 36 37 38 39 40 41
000
FTAK31 PAJN 252300
TAFAGS
TAF
PAGS 252322Z 2600/2624 13010KT P6SM -RA SCT008 OVC025
     FM260500 16005KT P6SM VCSH SCT015 OVC030
     FM261000 VRB05KT P6SM VCSH SCT020 OVC040
     FM261700 15004KT P6SM -SHRA SCT015 OVC030
     FM262200 VRB04KT P6SM VCSH SCT020 OVC040
      AMD LTD TO CLD VIS AND WIND=

USA.gov is the U.S. government's official web portal to all federal, state and local government web resources and services.